createdAt,value
2023-07-31T00:00:15.070Z,78.20
2023-07-31T00:01:15.156Z,79.02
2023-07-31T00:02:15.067Z,79.06
2023-07-31T00:03:15.128Z,78.05
2023-07-31T00:04:15.054Z,81.21
2023-07-31T00:05:15.046Z,78.31
2023-07-31T00:06:15.022Z,77.51
2023-07-31T00:07:15.023Z,79.06
2023-07-31T00:08:15.033Z,78.12
2023-07-31T00:09:15.019Z,81.79
2023-07-31T00:10:15.003Z,78.73
2023-07-31T00:11:14.990Z,79.42
2023-07-31T00:12:14.984Z,78.96
2023-07-31T00:13:14.997Z,79.81
2023-07-31T00:14:14.958Z,77.64
2023-07-31T00:15:14.966Z,79.09
2023-07-31T00:16:15.058Z,79.60
2023-07-31T00:17:14.965Z,79.47
2023-07-31T00:18:14.998Z,78.67
2023-07-31T00:19:15.065Z,81.10
2023-07-31T00:20:15.136Z,79.76
2023-07-31T00:21:15.240Z,80.18
2023-07-31T00:22:15.272Z,79.57
2023-07-31T00:23:15.316Z,80.25
2023-07-31T00:24:15.381Z,79.47
2023-07-31T00:25:15.458Z,79.91
2023-07-31T00:26:15.516Z,79.03
2023-07-31T00:27:15.583Z,82.10
2023-07-31T00:28:15.724Z,80.00
2023-07-31T00:29:15.704Z,79.25
2023-07-31T00:30:15.764Z,80.78
2023-07-31T00:31:15.865Z,79.62
2023-07-31T00:32:15.902Z,77.87
2023-07-31T00:33:16.000Z,79.76
2023-07-31T00:34:16.021Z,82.14
2023-07-31T00:35:16.091Z,82.21
2023-07-31T00:36:16.164Z,81.65
2023-07-31T00:37:16.212Z,78.74
2023-07-31T00:38:16.259Z,81.48
2023-07-31T00:39:16.327Z,81.62
2023-07-31T00:40:16.390Z,80.26
2023-07-31T00:41:16.442Z,82.58
2023-07-31T00:42:16.505Z,79.42
2023-07-31T00:43:16.586Z,83.20
2023-07-31T00:44:16.654Z,80.86
2023-07-31T00:45:16.726Z,79.69
2023-07-31T00:46:16.778Z,79.40
2023-07-31T00:47:16.853Z,81.12
2023-07-31T00:48:16.883Z,77.47
2023-07-31T00:49:17.036Z,80.68
2023-07-31T00:50:17.002Z,79.44
2023-07-31T00:51:17.068Z,78.64
2023-07-31T00:52:17.137Z,79.84
2023-07-31T00:53:17.175Z,83.25
2023-07-31T00:54:17.248Z,77.08
2023-07-31T00:55:17.288Z,77.25
2023-07-31T00:56:17.368Z,79.82
2023-07-31T00:57:17.416Z,78.00
2023-07-31T00:58:17.473Z,78.60
2023-07-31T00:59:17.528Z,79.34
2023-07-31T01:00:17.588Z,79.38
2023-07-31T01:01:17.670Z,78.51
2023-07-31T01:02:17.807Z,79.41
2023-07-31T01:03:17.796Z,79.96
2023-07-31T01:04:17.820Z,82.88
2023-07-31T01:05:17.895Z,78.43
2023-07-31T01:06:17.944Z,81.82
2023-07-31T01:07:18.006Z,78.81
2023-07-31T01:08:18.074Z,79.41
2023-07-31T01:09:18.158Z,79.86
2023-07-31T01:10:18.312Z,80.87
2023-07-31T01:11:18.297Z,80.98
2023-07-31T01:12:18.342Z,80.67
2023-07-31T01:13:18.390Z,80.42
2023-07-31T01:14:18.460Z,78.58
2023-07-31T01:15:18.489Z,77.59
2023-07-31T01:16:18.598Z,80.78
2023-07-31T01:17:18.800Z,80.60
2023-07-31T01:18:18.679Z,80.41
2023-07-31T01:19:18.746Z,78.24
2023-07-31T01:20:18.844Z,81.33
2023-07-31T01:21:18.866Z,79.49
2023-07-31T01:22:18.942Z,78.42
2023-07-31T01:23:18.992Z,79.70
2023-07-31T01:24:19.040Z,81.24
2023-07-31T01:25:19.113Z,81.72
2023-07-31T01:26:19.181Z,81.78
2023-07-31T01:27:19.248Z,81.89
2023-07-31T01:28:19.408Z,81.42
2023-07-31T01:29:19.357Z,80.75
2023-07-31T01:30:19.421Z,83.16
2023-07-31T01:31:19.549Z,79.93
2023-07-31T01:32:19.618Z,81.23
2023-07-31T01:33:19.603Z,78.42
2023-07-31T01:34:19.666Z,81.29
2023-07-31T01:35:19.740Z,80.74
2023-07-31T01:36:19.804Z,79.98
2023-07-31T01:37:19.878Z,81.50
2023-07-31T01:38:19.909Z,83.02
2023-07-31T01:39:19.982Z,82.20
2023-07-31T01:40:20.028Z,79.45
2023-07-31T01:41:20.096Z,81.22
2023-07-31T01:42:20.162Z,79.34
2023-07-31T01:43:20.218Z,79.06
2023-07-31T01:44:20.287Z,79.64
2023-07-31T01:45:20.328Z,80.90
2023-07-31T01:46:20.410Z,78.81
2023-07-31T01:47:20.548Z,78.95
2023-07-31T01:48:20.471Z,80.18
2023-07-31T01:49:20.519Z,80.02
2023-07-31T01:50:20.565Z,81.57
2023-07-31T01:51:20.614Z,83.31
2023-07-31T01:52:20.648Z,78.50
2023-07-31T01:53:20.686Z,78.16
2023-07-31T01:54:20.739Z,79.75
2023-07-31T01:55:20.772Z,82.15
2023-07-31T01:56:20.825Z,80.75
2023-07-31T01:57:20.895Z,79.05
2023-07-31T01:58:20.940Z,77.95
2023-07-31T01:59:21.004Z,79.52
2023-07-31T02:00:21.069Z,77.96
2023-07-31T02:01:21.210Z,78.71
2023-07-31T02:02:21.264Z,77.08
2023-07-31T02:03:21.375Z,79.42
2023-07-31T02:04:21.316Z,79.23
2023-07-31T02:05:21.368Z,78.85
2023-07-31T02:06:21.412Z,80.69
2023-07-31T02:07:21.481Z,77.28
2023-07-31T02:08:21.554Z,80.32
2023-07-31T02:09:21.624Z,79.24
2023-07-31T02:10:21.670Z,79.15
2023-07-31T02:11:21.740Z,79.78
2023-07-31T02:12:21.810Z,78.58
2023-07-31T02:13:21.868Z,80.96
2023-07-31T02:14:21.905Z,79.93
2023-07-31T02:15:21.961Z,81.92
2023-07-31T02:16:22.037Z,79.97
2023-07-31T02:17:22.062Z,80.51
2023-07-31T02:18:22.103Z,82.61
2023-07-31T02:19:22.153Z,80.54
2023-07-31T02:20:22.192Z,80.67
2023-07-31T02:21:22.258Z,81.53
2023-07-31T02:22:22.303Z,81.77
2023-07-31T02:23:22.373Z,80.26
2023-07-31T02:24:22.406Z,78.51
2023-07-31T02:25:22.451Z,81.15
2023-07-31T02:26:22.508Z,77.29
2023-07-31T02:27:22.582Z,80.15
2023-07-31T02:28:22.646Z,77.78
2023-07-31T02:29:22.678Z,78.19
2023-07-31T02:30:22.730Z,79.57
2023-07-31T02:31:23.478Z,79.53
2023-07-31T02:32:22.873Z,80.24
2023-07-31T02:33:22.929Z,80.78
2023-07-31T02:34:22.962Z,82.99
2023-07-31T02:35:23.042Z,81.87
2023-07-31T02:36:23.108Z,81.48
2023-07-31T02:37:23.172Z,80.24
2023-07-31T02:38:23.253Z,80.72
2023-07-31T02:39:23.271Z,79.77
2023-07-31T02:40:23.315Z,79.78
2023-07-31T02:41:23.354Z,79.31
2023-07-31T02:42:23.411Z,80.44
2023-07-31T02:43:23.449Z,80.15
2023-07-31T02:44:23.492Z,79.53
2023-07-31T02:45:23.535Z,80.88
2023-07-31T02:46:23.788Z,78.88
2023-07-31T02:47:23.684Z,79.24
2023-07-31T02:48:23.694Z,80.34
2023-07-31T02:49:23.741Z,80.51
2023-07-31T02:50:23.793Z,78.95
2023-07-31T02:51:23.846Z,79.17
2023-07-31T02:52:23.891Z,79.65
2023-07-31T02:53:23.943Z,80.26
2023-07-31T02:54:23.979Z,84.61
2023-07-31T02:55:24.004Z,76.10
2023-07-31T02:56:24.107Z,82.53
2023-07-31T02:57:24.098Z,79.95
2023-07-31T02:58:24.145Z,81.83
2023-07-31T02:59:24.201Z,82.47
2023-07-31T03:00:24.249Z,80.90
2023-07-31T03:01:24.342Z,80.13
2023-07-31T03:02:24.516Z,81.29
2023-07-31T03:03:24.488Z,82.44
2023-07-31T03:04:24.481Z,81.31
2023-07-31T03:05:24.571Z,80.81
2023-07-31T03:06:24.619Z,78.23
2023-07-31T03:07:24.619Z,81.74
2023-07-31T03:08:24.655Z,79.61
2023-07-31T03:09:24.685Z,79.81
2023-07-31T03:10:24.757Z,80.81
2023-07-31T03:11:24.796Z,79.97
2023-07-31T03:12:24.838Z,78.26
2023-07-31T03:13:24.884Z,80.40
2023-07-31T03:14:24.932Z,81.26
2023-07-31T03:15:24.979Z,82.39
2023-07-31T03:16:25.073Z,80.35
2023-07-31T03:17:25.073Z,81.35
2023-07-31T03:18:25.112Z,80.80
2023-07-31T03:19:25.185Z,79.20
2023-07-31T03:20:25.223Z,82.28
2023-07-31T03:21:25.289Z,82.41
2023-07-31T03:22:25.351Z,80.26
2023-07-31T03:23:25.420Z,79.64
2023-07-31T03:24:25.491Z,80.63
2023-07-31T03:25:25.543Z,80.50
2023-07-31T03:26:25.602Z,81.12
2023-07-31T03:27:25.671Z,80.30
2023-07-31T03:28:25.771Z,79.08
2023-07-31T03:29:25.771Z,80.12
2023-07-31T03:30:25.818Z,78.89
2023-07-31T03:31:25.945Z,78.03
2023-07-31T03:32:26.015Z,79.28
2023-07-31T03:33:25.967Z,80.49
2023-07-31T03:34:26.001Z,78.57
2023-07-31T03:35:26.044Z,82.24
2023-07-31T03:36:26.093Z,80.30
2023-07-31T03:37:26.141Z,80.79
2023-07-31T03:38:26.200Z,78.55
2023-07-31T03:39:26.270Z,80.35
2023-07-31T03:40:26.306Z,81.67
2023-07-31T03:41:26.377Z,78.74
2023-07-31T03:42:26.425Z,81.46
2023-07-31T03:43:26.470Z,80.12
2023-07-31T03:44:26.531Z,80.29
2023-07-31T03:45:26.578Z,79.73
2023-07-31T03:46:26.663Z,81.10
2023-07-31T03:47:26.706Z,82.46
2023-07-31T03:48:26.732Z,79.32
2023-07-31T03:49:26.797Z,80.62
2023-07-31T03:50:26.845Z,80.15
2023-07-31T03:51:26.998Z,79.53
2023-07-31T03:52:26.944Z,81.58
2023-07-31T03:53:26.980Z,79.59
2023-07-31T03:54:27.074Z,79.86
2023-07-31T03:55:27.102Z,78.47
2023-07-31T03:56:27.146Z,80.16
2023-07-31T03:57:27.203Z,81.23
2023-07-31T03:58:27.260Z,80.03
2023-07-31T03:59:27.331Z,81.47
2023-07-31T04:00:27.373Z,78.65
2023-07-31T04:01:27.499Z,83.63
2023-07-31T04:02:27.570Z,80.92
2023-07-31T04:03:27.593Z,80.30
2023-07-31T04:04:27.626Z,82.00
2023-07-31T04:05:27.718Z,80.09
2023-07-31T04:06:27.759Z,80.47
2023-07-31T04:07:27.794Z,81.91
2023-07-31T04:08:27.859Z,81.28
2023-07-31T04:09:27.889Z,81.89
2023-07-31T04:10:27.947Z,79.60
2023-07-31T04:11:27.994Z,79.65
2023-07-31T04:12:28.015Z,80.53
2023-07-31T04:13:28.063Z,79.66
2023-07-31T04:14:28.106Z,81.42
2023-07-31T04:15:28.139Z,79.29
2023-07-31T04:16:28.211Z,83.33
2023-07-31T04:17:28.220Z,79.71
2023-07-31T04:18:28.240Z,77.79
2023-07-31T04:19:28.287Z,79.62
2023-07-31T04:20:28.355Z,79.80
2023-07-31T04:21:28.426Z,80.50
2023-07-31T04:22:28.469Z,80.28
2023-07-31T04:23:28.536Z,78.75
2023-07-31T04:24:28.597Z,78.22
2023-07-31T04:25:28.664Z,77.30
2023-07-31T04:26:28.711Z,78.04
2023-07-31T04:27:28.778Z,84.15
2023-07-31T04:28:28.916Z,78.64
2023-07-31T04:29:28.899Z,79.75
2023-07-31T04:30:28.957Z,80.48
2023-07-31T04:31:29.054Z,79.95
2023-07-31T04:32:29.143Z,79.87
2023-07-31T04:33:29.159Z,77.84
2023-07-31T04:34:29.249Z,78.59
2023-07-31T04:35:29.271Z,81.98
2023-07-31T04:36:29.364Z,78.55
2023-07-31T04:37:29.393Z,79.11
2023-07-31T04:38:29.464Z,80.96
2023-07-31T04:39:29.531Z,79.28
2023-07-31T04:40:29.580Z,77.62
2023-07-31T04:41:29.627Z,77.30
2023-07-31T04:42:29.668Z,81.36
2023-07-31T04:43:29.725Z,77.29
2023-07-31T04:44:29.796Z,79.48
2023-07-31T04:45:29.867Z,79.87
2023-07-31T04:46:29.923Z,79.40
2023-07-31T04:47:30.003Z,81.12
2023-07-31T04:48:30.032Z,77.79
2023-07-31T04:49:30.084Z,79.78
2023-07-31T04:50:30.165Z,81.47
2023-07-31T04:51:30.218Z,78.13
2023-07-31T04:52:30.287Z,79.60
2023-07-31T04:53:30.372Z,76.74
2023-07-31T04:54:30.412Z,78.66
2023-07-31T04:55:30.477Z,78.90
2023-07-31T04:56:30.532Z,77.39
2023-07-31T04:57:30.630Z,78.76
2023-07-31T04:58:30.642Z,76.35
2023-07-31T04:59:30.726Z,77.29
2023-07-31T05:00:30.780Z,77.30
2023-07-31T05:01:30.841Z,77.20
2023-07-31T05:02:30.961Z,76.03
2023-07-31T05:03:30.995Z,75.31
2023-07-31T05:04:30.932Z,75.53
2023-07-31T05:05:30.998Z,77.47
2023-07-31T05:06:31.062Z,77.61
2023-07-31T05:07:31.093Z,76.27
2023-07-31T05:08:31.156Z,78.26
2023-07-31T05:09:31.208Z,76.39
2023-07-31T05:10:31.293Z,73.67
2023-07-31T05:11:31.361Z,76.43
2023-07-31T05:12:31.391Z,76.89
2023-07-31T05:13:31.467Z,73.70
2023-07-31T05:14:31.518Z,76.08
2023-07-31T05:15:31.593Z,74.56
2023-07-31T05:16:31.687Z,76.13
2023-07-31T05:17:31.780Z,75.96
2023-07-31T05:18:31.791Z,74.94
2023-07-31T05:19:31.820Z,75.30
2023-07-31T05:20:31.862Z,76.85
2023-07-31T05:21:31.888Z,74.64
2023-07-31T05:22:31.942Z,74.53
2023-07-31T05:23:31.969Z,76.12
2023-07-31T05:24:32.013Z,76.74
2023-07-31T05:25:32.050Z,74.91
2023-07-31T05:26:32.077Z,73.83
2023-07-31T05:27:32.105Z,75.97
2023-07-31T05:28:32.203Z,74.88
2023-07-31T05:29:32.230Z,76.85
2023-07-31T05:30:32.260Z,72.78
2023-07-31T05:31:32.299Z,72.98
2023-07-31T05:32:32.430Z,73.33
2023-07-31T05:33:32.402Z,75.17
2023-07-31T05:34:32.438Z,73.73
2023-07-31T05:35:32.485Z,75.04
2023-07-31T05:36:32.532Z,77.11
2023-07-31T05:37:32.553Z,77.39
2023-07-31T05:38:32.621Z,72.67
2023-07-31T05:39:32.674Z,73.31
2023-07-31T05:40:32.686Z,74.49
2023-07-31T05:41:32.742Z,73.57
2023-07-31T05:42:32.781Z,74.17
2023-07-31T05:43:32.852Z,74.51
2023-07-31T05:44:32.893Z,74.79
2023-07-31T05:45:32.963Z,73.07
2023-07-31T05:46:33.071Z,74.59
2023-07-31T05:47:33.075Z,74.43
2023-07-31T05:48:33.141Z,74.54
2023-07-31T05:49:33.194Z,72.90
2023-07-31T05:50:33.261Z,72.49
2023-07-31T05:51:33.334Z,73.53
2023-07-31T05:52:33.411Z,73.58
2023-07-31T05:53:33.509Z,72.79
2023-07-31T05:54:33.520Z,69.21
2023-07-31T05:55:33.586Z,69.29
2023-07-31T05:56:33.667Z,71.41
2023-07-31T05:57:33.714Z,71.01
2023-07-31T05:58:33.774Z,70.55
2023-07-31T05:59:33.840Z,70.58
2023-07-31T06:00:33.896Z,69.58
2023-07-31T06:01:33.980Z,71.27
2023-07-31T06:02:34.097Z,69.43
2023-07-31T06:03:34.209Z,69.86
2023-07-31T06:04:34.229Z,69.84
2023-07-31T06:05:34.189Z,69.88
2023-07-31T06:06:34.257Z,70.50
2023-07-31T06:07:34.303Z,68.01
2023-07-31T06:08:34.375Z,67.59
2023-07-31T06:09:34.429Z,68.10
2023-07-31T06:10:34.492Z,67.44
2023-07-31T06:11:34.571Z,68.72
2023-07-31T06:12:34.601Z,67.38
2023-07-31T06:13:34.663Z,67.94
2023-07-31T06:14:34.694Z,68.60
2023-07-31T06:15:34.766Z,67.93
2023-07-31T06:16:34.816Z,67.69
2023-07-31T06:17:34.900Z,69.00
2023-07-31T06:18:34.911Z,65.80
2023-07-31T06:19:34.997Z,65.84
2023-07-31T06:20:35.035Z,66.46
2023-07-31T06:21:35.082Z,65.07
2023-07-31T06:22:35.150Z,66.62
2023-07-31T06:23:35.194Z,66.64
2023-07-31T06:24:35.245Z,66.25
2023-07-31T06:25:35.284Z,65.28
2023-07-31T06:26:35.431Z,67.18
2023-07-31T06:27:35.407Z,66.19
2023-07-31T06:28:35.554Z,66.91
2023-07-31T06:29:35.517Z,65.51
2023-07-31T06:30:35.579Z,64.14
2023-07-31T06:31:35.775Z,65.59
2023-07-31T06:32:35.801Z,63.49
2023-07-31T06:33:35.774Z,64.82
2023-07-31T06:34:35.821Z,64.77
2023-07-31T06:35:35.890Z,66.18
2023-07-31T06:36:35.963Z,64.59
2023-07-31T06:37:37.964Z,64.32
2023-07-31T06:38:36.074Z,63.94
2023-07-31T06:39:36.119Z,63.55
2023-07-31T06:40:36.186Z,64.09
2023-07-31T06:41:36.268Z,63.43
2023-07-31T06:42:36.301Z,62.91
2023-07-31T06:43:36.347Z,63.31
2023-07-31T06:44:36.404Z,63.18
2023-07-31T06:45:36.518Z,62.25
2023-07-31T06:46:36.538Z,62.90
2023-07-31T06:47:36.637Z,61.88
2023-07-31T06:48:36.626Z,61.45
2023-07-31T06:49:36.688Z,62.80
2023-07-31T06:50:36.770Z,61.99
2023-07-31T06:51:36.791Z,62.31
2023-07-31T06:52:36.845Z,60.91
2023-07-31T06:53:36.903Z,61.06
2023-07-31T06:54:36.962Z,61.21
2023-07-31T06:55:37.012Z,62.84
2023-07-31T06:56:39.856Z,60.65
2023-07-31T06:57:37.054Z,68.04
2023-07-31T06:58:37.049Z,64.24
2023-07-31T06:59:37.049Z,61.33
2023-07-31T07:00:37.039Z,60.95
2023-07-31T07:01:37.088Z,60.91
2023-07-31T07:02:37.065Z,61.48
2023-07-31T07:03:37.014Z,61.33
2023-07-31T07:04:37.033Z,60.71
2023-07-31T07:05:37.136Z,60.89
2023-07-31T07:06:37.068Z,60.67
2023-07-31T07:07:36.985Z,62.24
2023-07-31T07:08:36.982Z,62.91
2023-07-31T07:09:36.970Z,61.18
2023-07-31T07:10:36.982Z,62.48
2023-07-31T07:11:36.958Z,62.72
2023-07-31T07:12:37.056Z,61.43
2023-07-31T07:13:39.289Z,60.81
2023-07-31T07:14:36.937Z,65.65
2023-07-31T07:15:36.923Z,66.03
2023-07-31T07:16:36.960Z,64.51
2023-07-31T07:17:36.938Z,66.06
2023-07-31T07:18:39.472Z,63.13
2023-07-31T07:19:36.899Z,63.80
2023-07-31T07:20:36.894Z,64.12
2023-07-31T07:21:36.894Z,64.24
2023-07-31T07:22:36.891Z,64.54
2023-07-31T07:23:36.875Z,64.68
2023-07-31T07:24:36.856Z,64.80
2023-07-31T07:25:36.865Z,62.33
2023-07-31T07:26:36.857Z,60.86
2023-07-31T07:27:36.858Z,62.27
2023-07-31T07:28:36.861Z,60.28
2023-07-31T07:29:36.832Z,60.38
2023-07-31T07:30:36.867Z,60.84
2023-07-31T07:31:36.849Z,60.97
2023-07-31T07:32:36.977Z,60.39
2023-07-31T07:33:36.955Z,60.25
2023-07-31T07:34:37.047Z,60.90
2023-07-31T07:35:37.059Z,61.65
2023-07-31T07:36:37.468Z,60.40
2023-07-31T07:37:37.197Z,61.69
2023-07-31T07:38:37.232Z,60.38
2023-07-31T07:39:37.310Z,60.00
2023-07-31T07:40:37.341Z,61.05
2023-07-31T07:41:37.626Z,60.74
2023-07-31T07:42:37.450Z,61.69
2023-07-31T07:43:37.513Z,61.07
2023-07-31T07:44:37.642Z,60.83
2023-07-31T07:45:37.613Z,60.89
2023-07-31T07:46:38.004Z,62.98
2023-07-31T07:47:37.773Z,61.62
2023-07-31T07:48:37.783Z,61.05
2023-07-31T07:49:37.820Z,63.42
2023-07-31T07:50:37.889Z,60.13
2023-07-31T07:51:38.202Z,61.36
2023-07-31T07:52:37.994Z,60.41
2023-07-31T07:53:38.044Z,60.65
2023-07-31T07:54:38.101Z,59.51
2023-07-31T07:55:38.160Z,61.89
2023-07-31T07:56:38.713Z,59.30
2023-07-31T07:57:38.253Z,61.25
2023-07-31T07:58:38.305Z,59.81
2023-07-31T07:59:38.356Z,61.34
2023-07-31T08:00:38.497Z,61.74
2023-07-31T08:01:38.478Z,60.09
2023-07-31T08:02:38.587Z,60.89
2023-07-31T08:03:38.640Z,59.43
2023-07-31T08:04:38.645Z,58.21
2023-07-31T08:05:38.702Z,58.58
2023-07-31T08:06:39.089Z,59.19
2023-07-31T08:07:38.806Z,59.45
2023-07-31T08:08:38.865Z,59.03
2023-07-31T08:09:38.906Z,59.02
2023-07-31T08:10:38.966Z,58.79
2023-07-31T08:11:39.016Z,58.62
2023-07-31T08:12:39.137Z,58.29
2023-07-31T08:13:39.127Z,58.40
2023-07-31T08:14:39.174Z,58.02
2023-07-31T08:15:39.230Z,57.09
2023-07-31T08:16:39.666Z,56.48
2023-07-31T08:17:39.350Z,58.16
2023-07-31T08:18:39.508Z,56.58
2023-07-31T08:19:39.451Z,56.81
2023-07-31T08:20:39.506Z,57.92
2023-07-31T08:21:39.547Z,57.13
2023-07-31T08:22:39.612Z,57.03
2023-07-31T08:23:39.654Z,57.76
2023-07-31T08:24:39.720Z,57.45
2023-07-31T08:25:39.764Z,57.30
2023-07-31T08:26:40.015Z,58.37
2023-07-31T08:27:39.864Z,56.92
2023-07-31T08:28:39.960Z,58.80
2023-07-31T08:29:40.007Z,60.32
2023-07-31T08:30:40.057Z,59.52
2023-07-31T08:31:40.093Z,58.64
2023-07-31T08:32:40.203Z,59.00
2023-07-31T08:33:40.239Z,57.47
2023-07-31T08:34:40.254Z,57.18
2023-07-31T08:35:40.317Z,57.16
2023-07-31T08:36:40.638Z,58.31
2023-07-31T08:37:40.421Z,61.03
2023-07-31T08:38:40.509Z,57.53
2023-07-31T08:39:40.542Z,58.88
2023-07-31T08:40:40.588Z,57.20
2023-07-31T08:41:40.626Z,57.15
2023-07-31T08:42:40.703Z,56.67
2023-07-31T08:43:40.750Z,55.71
2023-07-31T08:44:40.818Z,55.86
2023-07-31T08:45:40.855Z,55.65
2023-07-31T08:46:41.188Z,57.64
2023-07-31T08:47:40.986Z,55.12
2023-07-31T08:48:41.015Z,54.61
2023-07-31T08:49:41.072Z,56.00
2023-07-31T08:50:41.115Z,54.93
2023-07-31T08:51:41.175Z,56.44
2023-07-31T08:52:41.227Z,54.09
2023-07-31T08:53:41.290Z,53.93
2023-07-31T08:54:41.338Z,53.66
2023-07-31T08:55:41.404Z,53.56
2023-07-31T08:56:41.765Z,52.41
2023-07-31T08:57:41.488Z,51.59
2023-07-31T08:58:41.536Z,52.72
2023-07-31T08:59:41.594Z,51.80
2023-07-31T09:00:41.660Z,52.51
2023-07-31T09:01:41.733Z,51.19
2023-07-31T09:02:41.840Z,51.98
2023-07-31T09:03:41.899Z,51.45
2023-07-31T09:04:41.878Z,52.00
2023-07-31T09:05:41.919Z,53.62
2023-07-31T09:06:42.249Z,51.30
2023-07-31T09:07:42.044Z,51.00
2023-07-31T09:08:42.109Z,51.20
2023-07-31T09:09:42.129Z,51.78
2023-07-31T09:10:42.178Z,50.40
2023-07-31T09:11:42.235Z,51.04
2023-07-31T09:12:42.307Z,50.72
2023-07-31T09:13:42.359Z,50.74
2023-07-31T09:14:42.448Z,49.85
2023-07-31T09:15:42.468Z,52.15
2023-07-31T09:16:42.931Z,51.14
2023-07-31T09:17:42.598Z,50.71
2023-07-31T09:18:42.634Z,50.04
2023-07-31T09:19:42.677Z,50.58
2023-07-31T09:20:42.738Z,50.92
2023-07-31T09:21:42.839Z,51.27
2023-07-31T09:22:42.851Z,51.09
2023-07-31T09:23:42.913Z,51.29
2023-07-31T09:24:42.958Z,52.79
2023-07-31T09:25:43.013Z,52.49
2023-07-31T09:26:43.115Z,52.02
2023-07-31T09:27:43.135Z,51.71
2023-07-31T09:28:43.197Z,52.30
2023-07-31T09:29:43.253Z,52.97
2023-07-31T09:30:43.304Z,52.37
2023-07-31T09:31:43.438Z,52.81
2023-07-31T09:32:43.459Z,51.97
2023-07-31T09:33:43.470Z,52.26
2023-07-31T09:34:43.522Z,51.49
2023-07-31T09:35:43.590Z,52.23
2023-07-31T09:36:43.671Z,51.28
2023-07-31T09:37:43.690Z,52.36
2023-07-31T09:38:43.751Z,52.28
2023-07-31T09:39:43.827Z,53.31
2023-07-31T09:40:43.862Z,53.40
2023-07-31T09:41:43.932Z,52.26
2023-07-31T09:42:43.989Z,51.97
2023-07-31T09:43:44.039Z,51.68
2023-07-31T09:44:44.080Z,51.99
2023-07-31T09:45:44.191Z,52.41
2023-07-31T09:46:44.632Z,52.59
2023-07-31T09:47:44.378Z,52.93
2023-07-31T09:48:44.353Z,51.68
2023-07-31T09:49:44.388Z,52.47
2023-07-31T09:50:44.434Z,52.51
2023-07-31T09:51:44.490Z,52.88
2023-07-31T09:52:44.548Z,51.12
2023-07-31T09:53:44.622Z,52.65
2023-07-31T09:54:44.664Z,52.94
2023-07-31T09:55:44.726Z,52.23
2023-07-31T09:56:44.786Z,53.28
2023-07-31T09:57:44.818Z,52.81
2023-07-31T09:58:44.892Z,52.29
2023-07-31T09:59:44.953Z,52.57
2023-07-31T10:00:45.005Z,51.99
2023-07-31T10:01:45.160Z,52.66
2023-07-31T10:02:45.166Z,52.37
2023-07-31T10:03:45.190Z,52.48
2023-07-31T10:04:46.759Z,51.69
2023-07-31T10:05:45.274Z,51.98
2023-07-31T10:06:45.322Z,51.63
2023-07-31T10:07:45.383Z,52.50
2023-07-31T10:08:45.447Z,51.84
2023-07-31T10:09:45.505Z,52.78
2023-07-31T10:10:45.546Z,52.27
2023-07-31T10:11:45.608Z,51.72
2023-07-31T10:12:45.648Z,51.27
2023-07-31T10:13:45.711Z,51.12
2023-07-31T10:14:45.761Z,51.17
2023-07-31T10:15:45.874Z,51.10
2023-07-31T10:16:45.888Z,53.52
2023-07-31T10:17:45.953Z,51.19
2023-07-31T10:18:45.994Z,53.43
2023-07-31T10:19:46.095Z,53.86
2023-07-31T10:20:46.115Z,52.84
2023-07-31T10:21:46.164Z,54.60
2023-07-31T10:22:46.204Z,53.14
2023-07-31T10:23:46.258Z,53.90
2023-07-31T10:24:46.344Z,53.28
2023-07-31T10:25:46.365Z,53.07
2023-07-31T10:26:46.426Z,52.44
2023-07-31T10:27:46.478Z,51.32
2023-07-31T10:28:46.578Z,50.93
2023-07-31T10:29:46.596Z,52.59
2023-07-31T10:30:46.665Z,52.01
2023-07-31T10:31:46.696Z,50.92
2023-07-31T10:32:46.802Z,52.92
2023-07-31T10:33:46.819Z,51.63
2023-07-31T10:34:46.904Z,52.93
2023-07-31T10:35:46.934Z,53.58
2023-07-31T10:36:46.983Z,52.61
2023-07-31T10:37:47.042Z,52.40
2023-07-31T10:38:47.092Z,52.23
2023-07-31T10:39:47.145Z,52.38
2023-07-31T10:40:47.262Z,53.38
2023-07-31T10:41:47.290Z,52.53
2023-07-31T10:42:47.309Z,52.78
2023-07-31T10:43:47.365Z,52.51
2023-07-31T10:44:47.435Z,53.10
2023-07-31T10:45:47.484Z,51.94
2023-07-31T10:46:47.558Z,51.67
2023-07-31T10:47:47.629Z,52.88
2023-07-31T10:48:47.649Z,52.93
2023-07-31T10:49:47.685Z,51.68
2023-07-31T10:50:47.811Z,52.93
2023-07-31T10:51:47.797Z,54.26
2023-07-31T10:52:47.844Z,52.59
2023-07-31T10:53:47.903Z,51.44
2023-07-31T10:54:47.962Z,52.62
2023-07-31T10:55:48.011Z,50.92
2023-07-31T10:56:48.132Z,52.58
2023-07-31T10:57:48.126Z,52.40
2023-07-31T10:58:48.172Z,52.56
2023-07-31T10:59:48.228Z,52.78
2023-07-31T11:00:48.328Z,51.54
2023-07-31T11:01:48.332Z,50.99
2023-07-31T11:02:48.443Z,52.06
2023-07-31T11:03:48.627Z,51.43
2023-07-31T11:04:48.512Z,52.24
2023-07-31T11:05:48.585Z,51.36
2023-07-31T11:06:48.600Z,52.44
2023-07-31T11:07:48.646Z,52.04
2023-07-31T11:08:48.705Z,53.37
2023-07-31T11:09:48.752Z,51.40
2023-07-31T11:10:48.823Z,52.94
2023-07-31T11:11:48.867Z,51.22
2023-07-31T11:12:48.917Z,52.05
2023-07-31T11:13:48.967Z,51.73
2023-07-31T11:14:49.021Z,51.24
2023-07-31T11:15:49.064Z,53.19
2023-07-31T11:16:49.124Z,52.54
2023-07-31T11:17:49.253Z,52.56
2023-07-31T11:18:49.217Z,50.17
2023-07-31T11:19:49.265Z,51.54
2023-07-31T11:20:49.339Z,52.29
2023-07-31T11:21:49.368Z,52.08
2023-07-31T11:22:49.429Z,52.04
2023-07-31T11:23:49.469Z,50.80
2023-07-31T11:24:49.512Z,51.79
2023-07-31T11:25:49.554Z,51.76
2023-07-31T11:26:49.623Z,50.80
2023-07-31T11:27:49.660Z,51.71
2023-07-31T11:28:49.697Z,52.43
2023-07-31T11:29:49.752Z,50.81
2023-07-31T11:30:49.847Z,53.28
2023-07-31T11:31:49.840Z,51.42
2023-07-31T11:32:49.901Z,51.86
2023-07-31T11:33:49.956Z,51.20
2023-07-31T11:34:49.979Z,51.30
2023-07-31T11:35:50.035Z,52.01
2023-07-31T11:36:50.077Z,50.90
2023-07-31T11:37:50.113Z,52.25
2023-07-31T11:38:50.162Z,51.12
2023-07-31T11:39:50.209Z,51.72
2023-07-31T11:40:50.286Z,52.15
2023-07-31T11:41:50.295Z,51.76
2023-07-31T11:42:50.380Z,51.57
2023-07-31T11:43:50.402Z,51.45
2023-07-31T11:44:50.441Z,52.36
2023-07-31T11:45:50.600Z,51.61
2023-07-31T11:46:50.570Z,51.52
2023-07-31T11:47:50.614Z,51.98
2023-07-31T11:48:50.619Z,52.05
2023-07-31T11:49:50.657Z,52.34
2023-07-31T11:50:50.735Z,52.30
2023-07-31T11:51:50.742Z,53.73
2023-07-31T11:52:50.785Z,52.07
2023-07-31T11:53:50.831Z,53.07
2023-07-31T11:54:50.902Z,52.68
2023-07-31T11:55:50.929Z,52.56
2023-07-31T11:56:50.975Z,51.83
2023-07-31T11:57:51.015Z,53.47
2023-07-31T11:58:51.081Z,51.50
2023-07-31T11:59:51.110Z,52.06
2023-07-31T12:00:51.157Z,53.90
2023-07-31T12:01:51.250Z,53.35
2023-07-31T12:02:51.286Z,53.22
2023-07-31T12:03:51.343Z,52.07
2023-07-31T12:04:51.333Z,52.41
2023-07-31T12:05:51.386Z,52.05
2023-07-31T12:06:51.425Z,54.53
2023-07-31T12:07:51.480Z,52.54
2023-07-31T12:08:51.533Z,52.71
2023-07-31T12:09:51.566Z,51.21
2023-07-31T12:10:51.609Z,51.37
2023-07-31T12:11:51.674Z,52.37
2023-07-31T12:12:51.705Z,52.78
2023-07-31T12:13:51.756Z,51.43
2023-07-31T12:14:51.795Z,52.42
2023-07-31T12:15:51.843Z,51.77
2023-07-31T12:16:51.920Z,52.53
2023-07-31T12:17:51.956Z,52.10
2023-07-31T12:18:51.969Z,52.39
2023-07-31T12:19:52.020Z,53.11
2023-07-31T12:20:52.065Z,52.62
2023-07-31T12:21:52.099Z,53.35
2023-07-31T12:22:52.140Z,52.61
2023-07-31T12:23:52.187Z,53.70
2023-07-31T12:24:52.235Z,54.11
2023-07-31T12:25:52.280Z,53.18
2023-07-31T12:26:52.350Z,53.35
2023-07-31T12:27:52.372Z,52.99
2023-07-31T12:28:52.412Z,53.50
2023-07-31T12:29:52.451Z,54.22
2023-07-31T12:30:52.486Z,52.18
2023-07-31T12:31:52.607Z,51.70
2023-07-31T12:32:52.621Z,52.12
2023-07-31T12:33:52.624Z,52.97
2023-07-31T12:34:52.665Z,52.45
2023-07-31T12:35:52.729Z,52.26
2023-07-31T12:36:52.769Z,52.07
2023-07-31T12:37:52.812Z,53.17
2023-07-31T12:38:52.879Z,53.86
2023-07-31T12:39:52.907Z,52.60
2023-07-31T12:40:52.954Z,53.77
2023-07-31T12:41:53.087Z,54.10
2023-07-31T12:42:53.046Z,53.78
2023-07-31T12:43:53.100Z,52.61
2023-07-31T12:44:53.145Z,52.20
2023-07-31T12:45:53.230Z,54.09
2023-07-31T12:46:53.243Z,54.27
2023-07-31T12:47:53.338Z,53.61
2023-07-31T12:48:53.345Z,54.28
2023-07-31T12:49:53.396Z,52.50
2023-07-31T12:50:53.437Z,53.45
2023-07-31T12:51:53.516Z,54.75
2023-07-31T12:52:53.553Z,54.54